sensor_id;sensor_type;location;lat;lon;timestamp;P1;durP1;ratioP1;P2;durP2;ratioP2
12906;SDS011;6521;50.498;8.474;2023-08-24T00:02:24;3.95;;;2.75;;
12906;SDS011;6521;50.498;8.474;2023-08-24T00:04:55;3.92;;;2.83;;
12906;SDS011;6521;50.498;8.474;2023-08-24T00:07:27;3.17;;;2.65;;
12906;SDS011;6521;50.498;8.474;2023-08-24T00:09:58;3.00;;;2.65;;
12906;SDS011;6521;50.498;8.474;2023-08-24T00:12:29;3.15;;;2.50;;
12906;SDS011;6521;50.498;8.474;2023-08-24T00:15:00;4.88;;;2.53;;
12906;SDS011;6521;50.498;8.474;2023-08-24T00:17:31;3.25;;;2.30;;
12906;SDS011;6521;50.498;8.474;2023-08-24T00:20:01;4.07;;;2.50;;
12906;SDS011;6521;50.498;8.474;2023-08-24T00:22:34;4.72;;;2.80;;
12906;SDS011;6521;50.498;8.474;2023-08-24T00:25:08;5.22;;;2.67;;
12906;SDS011;6521;50.498;8.474;2023-08-24T00:27:39;3.25;;;2.67;;
12906;SDS011;6521;50.498;8.474;2023-08-24T00:30:10;8.48;;;3.20;;
12906;SDS011;6521;50.498;8.474;2023-08-24T00:32:41;5.65;;;2.78;;
12906;SDS011;6521;50.498;8.474;2023-08-24T00:35:11;4.47;;;2.58;;
12906;SDS011;6521;50.498;8.474;2023-08-24T00:37:42;3.58;;;2.85;;
12906;SDS011;6521;50.498;8.474;2023-08-24T00:40:13;4.78;;;2.67;;
12906;SDS011;6521;50.498;8.474;2023-08-24T00:42:44;2.75;;;2.55;;
12906;SDS011;6521;50.498;8.474;2023-08-24T00:45:18;2.83;;;2.50;;
12906;SDS011;6521;50.498;8.474;2023-08-24T00:47:50;4.82;;;2.80;;
12906;SDS011;6521;50.498;8.474;2023-08-24T00:50:22;4.10;;;2.95;;
12906;SDS011;6521;50.498;8.474;2023-08-24T00:52:53;3.22;;;2.80;;
12906;SDS011;6521;50.498;8.474;2023-08-24T00:55:24;3.40;;;2.78;;
12906;SDS011;6521;50.498;8.474;2023-08-24T00:57:55;7.03;;;3.03;;
12906;SDS011;6521;50.498;8.474;2023-08-24T01:00:26;4.97;;;2.90;;
12906;SDS011;6521;50.498;8.474;2023-08-24T01:02:57;3.72;;;3.33;;
12906;SDS011;6521;50.498;8.474;2023-08-24T01:05:28;4.78;;;3.00;;
12906;SDS011;6521;50.498;8.474;2023-08-24T01:07:59;4.18;;;2.85;;
12906;SDS011;6521;50.498;8.474;2023-08-24T01:10:34;3.95;;;2.92;;
12906;SDS011;6521;50.498;8.474;2023-08-24T01:13:32;4.65;;;2.80;;
12906;SDS011;6521;50.498;8.474;2023-08-24T01:16:13;3.92;;;2.97;;
12906;SDS011;6521;50.498;8.474;2023-08-24T01:18:48;6.03;;;2.90;;
12906;SDS011;6521;50.498;8.474;2023-08-24T01:21:21;6.75;;;2.80;;
12906;SDS011;6521;50.498;8.474;2023-08-24T01:26:44;5.18;;;3.13;;
12906;SDS011;6521;50.498;8.474;2023-08-24T01:29:16;3.58;;;3.05;;
12906;SDS011;6521;50.498;8.474;2023-08-24T01:31:48;6.38;;;2.97;;
12906;SDS011;6521;50.498;8.474;2023-08-24T01:34:22;4.90;;;3.15;;
12906;SDS011;6521;50.498;8.474;2023-08-24T01:36:55;3.45;;;2.95;;
12906;SDS011;6521;50.498;8.474;2023-08-24T01:39:29;3.90;;;2.90;;
12906;SDS011;6521;50.498;8.474;2023-08-24T01:42:05;2.92;;;2.65;;
12906;SDS011;6521;50.498;8.474;2023-08-24T01:44:39;6.00;;;3.15;;
12906;SDS011;6521;50.498;8.474;2023-08-24T01:47:12;6.05;;;3.13;;
12906;SDS011;6521;50.498;8.474;2023-08-24T01:49:43;5.28;;;3.60;;
12906;SDS011;6521;50.498;8.474;2023-08-24T01:52:14;13.65;;;3.88;;
12906;SDS011;6521;50.498;8.474;2023-08-24T01:54:46;6.40;;;3.25;;
12906;SDS011;6521;50.498;8.474;2023-08-24T01:57:18;3.97;;;3.15;;
12906;SDS011;6521;50.498;8.474;2023-08-24T01:59:49;4.22;;;2.80;;
12906;SDS011;6521;50.498;8.474;2023-08-24T02:02:20;5.43;;;3.10;;
12906;SDS011;6521;50.498;8.474;2023-08-24T02:04:51;11.32;;;3.58;;
12906;SDS011;6521;50.498;8.474;2023-08-24T02:07:24;8.30;;;3.38;;
12906;SDS011;6521;50.498;8.474;2023-08-24T02:09:55;6.60;;;3.50;;
12906;SDS011;6521;50.498;8.474;2023-08-24T02:12:25;5.22;;;3.40;;
12906;SDS011;6521;50.498;8.474;2023-08-24T02:14:56;3.92;;;3.17;;
12906;SDS011;6521;50.498;8.474;2023-08-24T02:17:27;4.35;;;3.15;;
12906;SDS011;6521;50.498;8.474;2023-08-24T02:19:57;6.95;;;3.55;;
12906;SDS011;6521;50.498;8.474;2023-08-24T02:22:29;5.15;;;3.22;;
12906;SDS011;6521;50.498;8.474;2023-08-24T02:25:01;4.22;;;3.35;;
12906;SDS011;6521;50.498;8.474;2023-08-24T02:27:35;6.50;;;3.30;;
12906;SDS011;6521;50.498;8.474;2023-08-24T02:30:06;4.20;;;3.15;;
12906;SDS011;6521;50.498;8.474;2023-08-24T02:32:37;5.80;;;3.28;;
12906;SDS011;6521;50.498;8.474;2023-08-24T02:35:08;4.22;;;3.35;;
12906;SDS011;6521;50.498;8.474;2023-08-24T02:37:38;4.45;;;3.05;;
12906;SDS011;6521;50.498;8.474;2023-08-24T02:40:09;3.15;;;2.85;;
12906;SDS011;6521;50.498;8.474;2023-08-24T02:42:40;5.80;;;3.00;;
12906;SDS011;6521;50.498;8.474;2023-08-24T02:45:11;3.42;;;3.00;;
12906;SDS011;6521;50.498;8.474;2023-08-24T02:47:42;6.07;;;3.53;;
12906;SDS011;6521;50.498;8.474;2023-08-24T02:50:13;5.00;;;3.38;;
12906;SDS011;6521;50.498;8.474;2023-08-24T02:52:44;6.00;;;3.05;;
12906;SDS011;6521;50.498;8.474;2023-08-24T02:55:15;4.68;;;3.35;;
12906;SDS011;6521;50.498;8.474;2023-08-24T02:57:46;5.47;;;3.38;;
12906;SDS011;6521;50.498;8.474;2023-08-24T03:00:16;6.75;;;3.42;;
12906;SDS011;6521;50.498;8.474;2023-08-24T03:02:48;5.97;;;3.65;;
12906;SDS011;6521;50.498;8.474;2023-08-24T03:05:19;3.97;;;3.35;;
12906;SDS011;6521;50.498;8.474;2023-08-24T03:07:49;3.88;;;3.20;;
12906;SDS011;6521;50.498;8.474;2023-08-24T03:10:20;6.82;;;3.10;;
12906;SDS011;6521;50.498;8.474;2023-08-24T03:12:52;3.97;;;2.97;;
12906;SDS011;6521;50.498;8.474;2023-08-24T03:15:23;5.40;;;2.80;;
12906;SDS011;6521;50.498;8.474;2023-08-24T03:17:54;5.40;;;3.42;;
12906;SDS011;6521;50.498;8.474;2023-08-24T03:20:25;3.88;;;3.47;;
12906;SDS011;6521;50.498;8.474;2023-08-24T03:22:56;7.50;;;3.38;;
12906;SDS011;6521;50.498;8.474;2023-08-24T03:25:28;3.67;;;3.30;;
12906;SDS011;6521;50.498;8.474;2023-08-24T03:27:59;4.05;;;3.38;;
12906;SDS011;6521;50.498;8.474;2023-08-24T03:30:33;3.45;;;3.10;;
12906;SDS011;6521;50.498;8.474;2023-08-24T03:33:07;4.55;;;3.15;;
12906;SDS011;6521;50.498;8.474;2023-08-24T03:35:39;3.17;;;2.85;;
12906;SDS011;6521;50.498;8.474;2023-08-24T03:38:10;5.43;;;3.33;;
12906;SDS011;6521;50.498;8.474;2023-08-24T03:40:41;3.15;;;2.55;;
12906;SDS011;6521;50.498;8.474;2023-08-24T03:43:12;4.88;;;3.08;;
12906;SDS011;6521;50.498;8.474;2023-08-24T03:45:43;3.83;;;3.25;;
12906;SDS011;6521;50.498;8.474;2023-08-24T03:48:15;4.55;;;3.38;;
12906;SDS011;6521;50.498;8.474;2023-08-24T03:50:46;9.13;;;3.47;;
12906;SDS011;6521;50.498;8.474;2023-08-24T03:53:17;4.07;;;3.33;;
12906;SDS011;6521;50.498;8.474;2023-08-24T03:55:48;6.13;;;3.28;;
12906;SDS011;6521;50.498;8.474;2023-08-24T03:58:21;4.13;;;3.50;;
12906;SDS011;6521;50.498;8.474;2023-08-24T04:00:52;9.05;;;3.60;;
12906;SDS011;6521;50.498;8.474;2023-08-24T04:03:24;7.53;;;3.20;;
12906;SDS011;6521;50.498;8.474;2023-08-24T04:05:56;3.90;;;3.13;;
12906;SDS011;6521;50.498;8.474;2023-08-24T04:08:27;4.47;;;3.00;;
12906;SDS011;6521;50.498;8.474;2023-08-24T04:10:58;4.93;;;3.28;;
12906;SDS011;6521;50.498;8.474;2023-08-24T04:13:29;5.65;;;3.67;;
12906;SDS011;6521;50.498;8.474;2023-08-24T04:15:59;7.53;;;3.30;;
12906;SDS011;6521;50.498;8.474;2023-08-24T04:18:30;5.72;;;4.15;;
12906;SDS011;6521;50.498;8.474;2023-08-24T04:21:02;4.30;;;3.88;;
12906;SDS011;6521;50.498;8.474;2023-08-24T04:23:33;4.20;;;3.83;;
12906;SDS011;6521;50.498;8.474;2023-08-24T04:26:03;5.95;;;3.47;;
12906;SDS011;6521;50.498;8.474;2023-08-24T04:28:35;5.20;;;3.70;;
12906;SDS011;6521;50.498;8.474;2023-08-24T04:31:06;5.03;;;3.80;;
12906;SDS011;6521;50.498;8.474;2023-08-24T04:33:36;6.32;;;3.70;;
12906;SDS011;6521;50.498;8.474;2023-08-24T04:36:07;4.97;;;3.95;;
12906;SDS011;6521;50.498;8.474;2023-08-24T04:38:38;6.10;;;3.63;;
12906;SDS011;6521;50.498;8.474;2023-08-24T04:41:09;5.63;;;3.88;;
12906;SDS011;6521;50.498;8.474;2023-08-24T04:43:41;3.65;;;3.25;;
12906;SDS011;6521;50.498;8.474;2023-08-24T04:46:14;4.32;;;3.92;;
12906;SDS011;6521;50.498;8.474;2023-08-24T04:48:44;7.90;;;5.32;;
12906;SDS011;6521;50.498;8.474;2023-08-24T04:51:16;8.52;;;4.43;;
12906;SDS011;6521;50.498;8.474;2023-08-24T04:53:48;4.80;;;4.32;;
12906;SDS011;6521;50.498;8.474;2023-08-24T04:56:18;7.90;;;5.28;;
12906;SDS011;6521;50.498;8.474;2023-08-24T04:58:55;8.45;;;4.70;;
12906;SDS011;6521;50.498;8.474;2023-08-24T05:01:27;26.52;;;5.88;;
12906;SDS011;6521;50.498;8.474;2023-08-24T05:03:58;8.23;;;4.93;;
12906;SDS011;6521;50.498;8.474;2023-08-24T05:06:29;15.73;;;5.22;;
12906;SDS011;6521;50.498;8.474;2023-08-24T05:09:00;9.63;;;4.78;;
12906;SDS011;6521;50.498;8.474;2023-08-24T05:11:31;10.32;;;5.10;;
12906;SDS011;6521;50.498;8.474;2023-08-24T05:14:02;5.47;;;4.70;;
12906;SDS011;6521;50.498;8.474;2023-08-24T05:16:32;9.98;;;4.38;;
12906;SDS011;6521;50.498;8.474;2023-08-24T05:19:03;8.27;;;4.78;;
12906;SDS011;6521;50.498;8.474;2023-08-24T05:21:34;8.50;;;5.07;;
12906;SDS011;6521;50.498;8.474;2023-08-24T05:24:04;7.32;;;4.82;;
12906;SDS011;6521;50.498;8.474;2023-08-24T05:26:35;6.25;;;4.88;;
12906;SDS011;6521;50.498;8.474;2023-08-24T05:29:06;9.52;;;4.93;;
12906;SDS011;6521;50.498;8.474;2023-08-24T05:31:37;10.27;;;4.93;;
12906;SDS011;6521;50.498;8.474;2023-08-24T05:34:07;9.15;;;4.47;;
12906;SDS011;6521;50.498;8.474;2023-08-24T05:36:38;6.75;;;4.80;;
12906;SDS011;6521;50.498;8.474;2023-08-24T05:39:08;6.18;;;4.82;;
12906;SDS011;6521;50.498;8.474;2023-08-24T05:41:41;10.65;;;5.68;;
12906;SDS011;6521;50.498;8.474;2023-08-24T05:44:12;8.57;;;5.18;;
12906;SDS011;6521;50.498;8.474;2023-08-24T05:46:43;7.35;;;5.68;;
12906;SDS011;6521;50.498;8.474;2023-08-24T05:49:14;5.35;;;4.47;;
12906;SDS011;6521;50.498;8.474;2023-08-24T05:51:45;8.30;;;4.93;;
12906;SDS011;6521;50.498;8.474;2023-08-24T05:54:16;7.00;;;5.50;;
12906;SDS011;6521;50.498;8.474;2023-08-24T05:56:50;6.28;;;4.95;;
12906;SDS011;6521;50.498;8.474;2023-08-24T05:59:21;7.97;;;5.03;;
12906;SDS011;6521;50.498;8.474;2023-08-24T06:01:51;6.60;;;5.05;;
12906;SDS011;6521;50.498;8.474;2023-08-24T06:04:22;7.30;;;4.82;;
12906;SDS011;6521;50.498;8.474;2023-08-24T06:06:53;7.90;;;5.07;;
12906;SDS011;6521;50.498;8.474;2023-08-24T06:09:23;10.45;;;5.40;;
12906;SDS011;6521;50.498;8.474;2023-08-24T06:11:54;5.20;;;4.20;;
12906;SDS011;6521;50.498;8.474;2023-08-24T06:14:25;27.48;;;5.97;;
12906;SDS011;6521;50.498;8.474;2023-08-24T06:16:55;19.08;;;5.47;;
12906;SDS011;6521;50.498;8.474;2023-08-24T06:19:26;11.77;;;5.45;;
12906;SDS011;6521;50.498;8.474;2023-08-24T06:21:57;6.88;;;4.82;;
12906;SDS011;6521;50.498;8.474;2023-08-24T06:24:27;8.88;;;5.35;;
12906;SDS011;6521;50.498;8.474;2023-08-24T06:26:58;7.95;;;5.32;;
12906;SDS011;6521;50.498;8.474;2023-08-24T06:29:29;5.63;;;4.32;;
12906;SDS011;6521;50.498;8.474;2023-08-24T06:32:00;6.63;;;4.85;;
12906;SDS011;6521;50.498;8.474;2023-08-24T06:34:31;7.20;;;5.43;;
12906;SDS011;6521;50.498;8.474;2023-08-24T06:37:01;8.60;;;5.20;;
12906;SDS011;6521;50.498;8.474;2023-08-24T06:39:33;8.55;;;6.05;;
12906;SDS011;6521;50.498;8.474;2023-08-24T06:42:05;9.15;;;6.40;;
12906;SDS011;6521;50.498;8.474;2023-08-24T06:44:36;10.20;;;8.23;;
12906;SDS011;6521;50.498;8.474;2023-08-24T06:47:07;14.15;;;8.02;;
12906;SDS011;6521;50.498;8.474;2023-08-24T06:49:37;9.85;;;6.97;;
12906;SDS011;6521;50.498;8.474;2023-08-24T06:52:08;10.25;;;8.13;;
12906;SDS011;6521;50.498;8.474;2023-08-24T06:54:39;8.43;;;7.38;;
12906;SDS011;6521;50.498;8.474;2023-08-24T06:57:09;10.02;;;7.10;;
12906;SDS011;6521;50.498;8.474;2023-08-24T06:59:40;11.52;;;7.20;;
12906;SDS011;6521;50.498;8.474;2023-08-24T07:02:11;10.13;;;6.93;;
12906;SDS011;6521;50.498;8.474;2023-08-24T07:04:41;8.18;;;6.47;;
12906;SDS011;6521;50.498;8.474;2023-08-24T07:07:12;7.07;;;6.22;;
12906;SDS011;6521;50.498;8.474;2023-08-24T07:09:43;6.13;;;5.53;;
12906;SDS011;6521;50.498;8.474;2023-08-24T07:12:14;7.60;;;5.68;;
12906;SDS011;6521;50.498;8.474;2023-08-24T07:14:45;6.05;;;5.32;;
12906;SDS011;6521;50.498;8.474;2023-08-24T07:17:15;6.57;;;5.40;;
12906;SDS011;6521;50.498;8.474;2023-08-24T07:19:46;9.18;;;6.28;;
12906;SDS011;6521;50.498;8.474;2023-08-24T07:22:17;6.18;;;5.63;;
12906;SDS011;6521;50.498;8.474;2023-08-24T07:24:47;7.40;;;6.07;;
12906;SDS011;6521;50.498;8.474;2023-08-24T07:27:22;7.97;;;5.38;;
12906;SDS011;6521;50.498;8.474;2023-08-24T07:29:53;6.20;;;5.32;;
12906;SDS011;6521;50.498;8.474;2023-08-24T07:32:23;6.35;;;5.75;;
12906;SDS011;6521;50.498;8.474;2023-08-24T07:34:54;5.22;;;4.82;;
12906;SDS011;6521;50.498;8.474;2023-08-24T07:37:25;6.93;;;5.53;;
12906;SDS011;6521;50.498;8.474;2023-08-24T07:39:56;9.68;;;5.28;;
12906;SDS011;6521;50.498;8.474;2023-08-24T07:42:27;6.93;;;4.72;;
12906;SDS011;6521;50.498;8.474;2023-08-24T07:44:58;12.30;;;4.80;;
12906;SDS011;6521;50.498;8.474;2023-08-24T07:47:28;5.18;;;4.43;;
12906;SDS011;6521;50.498;8.474;2023-08-24T07:49:59;5.47;;;4.85;;
12906;SDS011;6521;50.498;8.474;2023-08-24T07:52:30;5.05;;;4.57;;
12906;SDS011;6521;50.498;8.474;2023-08-24T07:55:01;5.25;;;4.75;;
12906;SDS011;6521;50.498;8.474;2023-08-24T07:57:35;5.47;;;4.80;;
12906;SDS011;6521;50.498;8.474;2023-08-24T08:00:08;7.43;;;4.78;;
12906;SDS011;6521;50.498;8.474;2023-08-24T08:02:43;7.63;;;4.80;;
12906;SDS011;6521;50.498;8.474;2023-08-24T08:05:13;6.32;;;4.78;;
12906;SDS011;6521;50.498;8.474;2023-08-24T08:07:44;7.65;;;4.53;;
12906;SDS011;6521;50.498;8.474;2023-08-24T08:10:15;11.15;;;5.45;;
12906;SDS011;6521;50.498;8.474;2023-08-24T08:12:47;5.30;;;4.80;;
12906;SDS011;6521;50.498;8.474;2023-08-24T08:15:18;11.55;;;5.10;;
12906;SDS011;6521;50.498;8.474;2023-08-24T08:17:49;6.85;;;4.72;;
12906;SDS011;6521;50.498;8.474;2023-08-24T08:20:20;4.90;;;4.38;;
12906;SDS011;6521;50.498;8.474;2023-08-24T08:22:50;6.78;;;4.35;;
12906;SDS011;6521;50.498;8.474;2023-08-24T08:25:21;7.38;;;4.07;;
12906;SDS011;6521;50.498;8.474;2023-08-24T08:27:53;4.90;;;4.35;;
12906;SDS011;6521;50.498;8.474;2023-08-24T08:30:23;10.35;;;4.65;;
12906;SDS011;6521;50.498;8.474;2023-08-24T08:32:54;4.90;;;4.28;;
12906;SDS011;6521;50.498;8.474;2023-08-24T08:35:25;8.65;;;4.53;;
12906;SDS011;6521;50.498;8.474;2023-08-24T08:37:56;8.07;;;4.65;;
12906;SDS011;6521;50.498;8.474;2023-08-24T08:40:27;6.45;;;3.78;;
12906;SDS011;6521;50.498;8.474;2023-08-24T08:43:00;8.25;;;3.80;;
12906;SDS011;6521;50.498;8.474;2023-08-24T08:45:31;7.65;;;3.95;;
12906;SDS011;6521;50.498;8.474;2023-08-24T08:48:02;6.93;;;4.32;;
12906;SDS011;6521;50.498;8.474;2023-08-24T08:50:34;4.57;;;3.60;;
12906;SDS011;6521;50.498;8.474;2023-08-24T08:53:05;6.47;;;3.80;;
12906;SDS011;6521;50.498;8.474;2023-08-24T08:55:36;4.07;;;3.30;;
12906;SDS011;6521;50.498;8.474;2023-08-24T08:58:06;3.95;;;3.33;;
12906;SDS011;6521;50.498;8.474;2023-08-24T09:00:38;5.05;;;3.38;;
12906;SDS011;6521;50.498;8.474;2023-08-24T09:03:08;8.05;;;3.63;;
12906;SDS011;6521;50.498;8.474;2023-08-24T09:05:39;6.57;;;3.63;;
12906;SDS011;6521;50.498;8.474;2023-08-24T09:08:10;4.68;;;3.00;;
12906;SDS011;6521;50.498;8.474;2023-08-24T09:10:41;4.90;;;3.00;;
12906;SDS011;6521;50.498;8.474;2023-08-24T09:13:11;31.67;;;4.05;;
12906;SDS011;6521;50.498;8.474;2023-08-24T09:15:42;4.68;;;3.25;;
12906;SDS011;6521;50.498;8.474;2023-08-24T09:18:13;6.30;;;3.55;;
12906;SDS011;6521;50.498;8.474;2023-08-24T09:20:43;4.00;;;2.70;;
12906;SDS011;6521;50.498;8.474;2023-08-24T09:23:17;4.40;;;2.45;;
12906;SDS011;6521;50.498;8.474;2023-08-24T09:25:51;14.98;;;3.08;;
12906;SDS011;6521;50.498;8.474;2023-08-24T09:28:22;7.18;;;2.35;;
12906;SDS011;6521;50.498;8.474;2023-08-24T09:30:54;5.68;;;2.65;;
12906;SDS011;6521;50.498;8.474;2023-08-24T09:33:25;4.03;;;2.60;;
12906;SDS011;6521;50.498;8.474;2023-08-24T09:35:55;5.85;;;2.70;;
12906;SDS011;6521;50.498;8.474;2023-08-24T09:38:31;3.88;;;2.65;;
12906;SDS011;6521;50.498;8.474;2023-08-24T09:41:01;6.13;;;2.35;;
12906;SDS011;6521;50.498;8.474;2023-08-24T09:43:33;3.00;;;2.20;;
12906;SDS011;6521;50.498;8.474;2023-08-24T09:46:04;5.07;;;2.30;;
12906;SDS011;6521;50.498;8.474;2023-08-24T09:48:36;4.00;;;2.08;;
12906;SDS011;6521;50.498;8.474;2023-08-24T09:51:08;5.53;;;2.05;;
12906;SDS011;6521;50.498;8.474;2023-08-24T09:53:40;7.05;;;2.17;;
12906;SDS011;6521;50.498;8.474;2023-08-24T09:56:12;5.78;;;2.30;;
12906;SDS011;6521;50.498;8.474;2023-08-24T09:58:46;2.72;;;2.10;;
12906;SDS011;6521;50.498;8.474;2023-08-24T10:01:18;3.78;;;1.85;;
12906;SDS011;6521;50.498;8.474;2023-08-24T10:03:50;5.00;;;1.88;;
12906;SDS011;6521;50.498;8.474;2023-08-24T10:06:26;3.70;;;2.00;;
12906;SDS011;6521;50.498;8.474;2023-08-24T10:08:58;5.53;;;2.05;;
12906;SDS011;6521;50.498;8.474;2023-08-24T10:11:35;5.10;;;2.10;;
12906;SDS011;6521;50.498;8.474;2023-08-24T10:14:13;3.30;;;2.00;;
12906;SDS011;6521;50.498;8.474;2023-08-24T10:16:49;2.17;;;1.77;;
12906;SDS011;6521;50.498;8.474;2023-08-24T10:19:21;4.78;;;1.90;;
12906;SDS011;6521;50.498;8.474;2023-08-24T10:21:55;3.03;;;2.10;;
12906;SDS011;6521;50.498;8.474;2023-08-24T10:24:29;6.82;;;2.20;;
12906;SDS011;6521;50.498;8.474;2023-08-24T10:27:02;4.22;;;1.80;;
12906;SDS011;6521;50.498;8.474;2023-08-24T10:29:33;15.27;;;2.40;;
12906;SDS011;6521;50.498;8.474;2023-08-24T10:32:04;3.85;;;2.20;;
12906;SDS011;6521;50.498;8.474;2023-08-24T10:34:35;3.95;;;2.30;;
12906;SDS011;6521;50.498;8.474;2023-08-24T10:37:07;6.28;;;2.28;;
12906;SDS011;6521;50.498;8.474;2023-08-24T10:39:46;5.70;;;2.30;;
12906;SDS011;6521;50.498;8.474;2023-08-24T10:42:17;4.03;;;1.95;;
12906;SDS011;6521;50.498;8.474;2023-08-24T10:44:47;3.10;;;2.15;;
12906;SDS011;6521;50.498;8.474;2023-08-24T10:47:20;5.43;;;1.98;;
12906;SDS011;6521;50.498;8.474;2023-08-24T10:52:32;5.25;;;2.20;;
12906;SDS011;6521;50.498;8.474;2023-08-24T10:55:21;5.70;;;2.13;;
12906;SDS011;6521;50.498;8.474;2023-08-24T10:57:56;4.57;;;2.75;;
12906;SDS011;6521;50.498;8.474;2023-08-24T11:00:29;3.42;;;1.90;;
12906;SDS011;6521;50.498;8.474;2023-08-24T11:03:00;3.58;;;2.22;;
12906;SDS011;6521;50.498;8.474;2023-08-24T11:05:31;5.45;;;2.53;;
12906;SDS011;6521;50.498;8.474;2023-08-24T11:08:05;3.92;;;1.85;;
12906;SDS011;6521;50.498;8.474;2023-08-24T11:13:13;3.97;;;2.10;;
12906;SDS011;6521;50.498;8.474;2023-08-24T11:15:47;6.18;;;2.30;;
12906;SDS011;6521;50.498;8.474;2023-08-24T11:18:30;3.25;;;2.05;;
12906;SDS011;6521;50.498;8.474;2023-08-24T11:21:04;2.78;;;2.03;;
12906;SDS011;6521;50.498;8.474;2023-08-24T11:23:36;3.75;;;2.15;;
12906;SDS011;6521;50.498;8.474;2023-08-24T11:26:07;4.90;;;2.30;;
12906;SDS011;6521;50.498;8.474;2023-08-24T11:28:38;3.78;;;2.80;;
12906;SDS011;6521;50.498;8.474;2023-08-24T11:31:08;3.15;;;1.95;;
12906;SDS011;6521;50.498;8.474;2023-08-24T11:33:39;3.28;;;2.22;;
12906;SDS011;6521;50.498;8.474;2023-08-24T11:36:09;3.78;;;2.50;;
12906;SDS011;6521;50.498;8.474;2023-08-24T11:38:40;3.03;;;2.10;;
12906;SDS011;6521;50.498;8.474;2023-08-24T11:41:17;4.85;;;2.47;;
12906;SDS011;6521;50.498;8.474;2023-08-24T11:43:48;6.40;;;2.50;;
12906;SDS011;6521;50.498;8.474;2023-08-24T11:46:21;4.68;;;2.38;;
12906;SDS011;6521;50.498;8.474;2023-08-24T11:48:51;5.57;;;2.15;;
12906;SDS011;6521;50.498;8.474;2023-08-24T11:51:22;5.15;;;2.60;;
12906;SDS011;6521;50.498;8.474;2023-08-24T11:53:53;4.93;;;2.28;;
12906;SDS011;6521;50.498;8.474;2023-08-24T11:56:23;6.22;;;2.65;;
12906;SDS011;6521;50.498;8.474;2023-08-24T11:58:54;3.90;;;2.47;;
12906;SDS011;6521;50.498;8.474;2023-08-24T12:01:24;5.03;;;3.13;;
12906;SDS011;6521;50.498;8.474;2023-08-24T12:03:57;5.32;;;2.35;;
12906;SDS011;6521;50.498;8.474;2023-08-24T12:06:27;11.98;;;2.80;;
12906;SDS011;6521;50.498;8.474;2023-08-24T12:08:59;10.63;;;2.35;;
12906;SDS011;6521;50.498;8.474;2023-08-24T12:11:30;3.95;;;2.75;;
12906;SDS011;6521;50.498;8.474;2023-08-24T12:14:06;4.40;;;2.75;;
12906;SDS011;6521;50.498;8.474;2023-08-24T12:16:39;6.88;;;2.60;;
12906;SDS011;6521;50.498;8.474;2023-08-24T12:19:12;6.53;;;2.72;;
12906;SDS011;6521;50.498;8.474;2023-08-24T12:21:49;4.38;;;2.28;;
12906;SDS011;6521;50.498;8.474;2023-08-24T12:24:21;8.48;;;2.60;;
12906;SDS011;6521;50.498;8.474;2023-08-24T12:26:55;6.22;;;2.80;;
12906;SDS011;6521;50.498;8.474;2023-08-24T12:29:31;10.35;;;3.13;;
12906;SDS011;6521;50.498;8.474;2023-08-24T12:32:04;6.55;;;2.67;;
12906;SDS011;6521;50.498;8.474;2023-08-24T12:34:35;4.80;;;2.63;;
12906;SDS011;6521;50.498;8.474;2023-08-24T12:37:06;6.43;;;2.80;;
12906;SDS011;6521;50.498;8.474;2023-08-24T12:39:39;4.38;;;2.60;;
12906;SDS011;6521;50.498;8.474;2023-08-24T12:42:13;9.15;;;2.75;;
12906;SDS011;6521;50.498;8.474;2023-08-24T12:44:44;5.53;;;2.92;;
12906;SDS011;6521;50.498;8.474;2023-08-24T12:47:15;15.15;;;3.88;;
12906;SDS011;6521;50.498;8.474;2023-08-24T12:49:48;6.95;;;2.88;;
12906;SDS011;6521;50.498;8.474;2023-08-24T12:52:19;3.08;;;2.55;;
12906;SDS011;6521;50.498;8.474;2023-08-24T12:54:49;2.85;;;2.33;;
12906;SDS011;6521;50.498;8.474;2023-08-24T12:57:20;3.40;;;2.58;;
12906;SDS011;6521;50.498;8.474;2023-08-24T12:59:51;6.20;;;3.08;;
12906;SDS011;6521;50.498;8.474;2023-08-24T13:02:22;5.60;;;3.17;;
12906;SDS011;6521;50.498;8.474;2023-08-24T13:04:52;7.05;;;3.45;;
12906;SDS011;6521;50.498;8.474;2023-08-24T13:07:23;3.78;;;3.00;;
12906;SDS011;6521;50.498;8.474;2023-08-24T13:09:53;3.25;;;2.67;;
12906;SDS011;6521;50.498;8.474;2023-08-24T13:12:24;9.95;;;3.15;;
12906;SDS011;6521;50.498;8.474;2023-08-24T13:14:54;6.60;;;2.90;;
12906;SDS011;6521;50.498;8.474;2023-08-24T13:17:25;4.90;;;3.08;;
12906;SDS011;6521;50.498;8.474;2023-08-24T13:19:55;8.05;;;2.85;;
12906;SDS011;6521;50.498;8.474;2023-08-24T13:22:26;4.45;;;3.13;;
12906;SDS011;6521;50.498;8.474;2023-08-24T13:24:57;3.28;;;2.60;;
12906;SDS011;6521;50.498;8.474;2023-08-24T13:27:28;8.88;;;3.33;;
12906;SDS011;6521;50.498;8.474;2023-08-24T13:30:01;3.17;;;2.78;;
12906;SDS011;6521;50.498;8.474;2023-08-24T13:32:32;4.28;;;3.13;;
12906;SDS011;6521;50.498;8.474;2023-08-24T13:35:04;4.47;;;3.45;;
12906;SDS011;6521;50.498;8.474;2023-08-24T13:37:35;6.45;;;3.25;;
12906;SDS011;6521;50.498;8.474;2023-08-24T13:40:06;4.15;;;3.05;;
12906;SDS011;6521;50.498;8.474;2023-08-24T13:42:38;9.90;;;3.35;;
12906;SDS011;6521;50.498;8.474;2023-08-24T13:45:08;10.95;;;3.05;;
12906;SDS011;6521;50.498;8.474;2023-08-24T13:47:39;4.63;;;3.10;;
12906;SDS011;6521;50.498;8.474;2023-08-24T13:50:09;5.28;;;3.40;;
12906;SDS011;6521;50.498;8.474;2023-08-24T13:52:40;4.28;;;3.10;;
12906;SDS011;6521;50.498;8.474;2023-08-24T13:55:10;4.65;;;3.20;;
12906;SDS011;6521;50.498;8.474;2023-08-24T13:57:41;7.28;;;3.10;;
12906;SDS011;6521;50.498;8.474;2023-08-24T14:00:15;3.80;;;2.88;;
12906;SDS011;6521;50.498;8.474;2023-08-24T14:02:47;5.38;;;3.42;;
12906;SDS011;6521;50.498;8.474;2023-08-24T14:05:19;7.82;;;3.42;;
12906;SDS011;6521;50.498;8.474;2023-08-24T14:07:49;15.65;;;3.58;;
12906;SDS011;6521;50.498;8.474;2023-08-24T14:10:21;3.65;;;3.08;;
12906;SDS011;6521;50.498;8.474;2023-08-24T14:12:51;4.55;;;3.28;;
12906;SDS011;6521;50.498;8.474;2023-08-24T14:15:21;8.48;;;3.80;;
12906;SDS011;6521;50.498;8.474;2023-08-24T14:17:52;3.78;;;2.80;;
12906;SDS011;6521;50.498;8.474;2023-08-24T14:20:22;7.15;;;3.15;;
12906;SDS011;6521;50.498;8.474;2023-08-24T14:22:56;8.57;;;3.25;;
12906;SDS011;6521;50.498;8.474;2023-08-24T14:25:27;12.02;;;3.08;;
12906;SDS011;6521;50.498;8.474;2023-08-24T14:27:57;4.38;;;2.92;;
12906;SDS011;6521;50.498;8.474;2023-08-24T14:30:28;5.30;;;3.05;;
12906;SDS011;6521;50.498;8.474;2023-08-24T14:32:58;10.70;;;3.60;;
12906;SDS011;6521;50.498;8.474;2023-08-24T14:35:29;15.75;;;4.32;;
12906;SDS011;6521;50.498;8.474;2023-08-24T14:37:59;16.17;;;4.15;;
12906;SDS011;6521;50.498;8.474;2023-08-24T14:40:30;9.95;;;3.70;;
12906;SDS011;6521;50.498;8.474;2023-08-24T14:43:00;6.55;;;3.67;;
12906;SDS011;6521;50.498;8.474;2023-08-24T14:45:31;6.20;;;3.08;;
12906;SDS011;6521;50.498;8.474;2023-08-24T14:48:01;5.15;;;3.35;;
12906;SDS011;6521;50.498;8.474;2023-08-24T14:50:32;4.65;;;2.95;;
12906;SDS011;6521;50.498;8.474;2023-08-24T14:53:02;5.95;;;3.53;;
12906;SDS011;6521;50.498;8.474;2023-08-24T14:55:33;5.15;;;3.35;;
12906;SDS011;6521;50.498;8.474;2023-08-24T14:58:04;5.38;;;3.80;;
12906;SDS011;6521;50.498;8.474;2023-08-24T15:00:34;8.30;;;3.95;;
12906;SDS011;6521;50.498;8.474;2023-08-24T15:03:05;4.57;;;3.80;;
12906;SDS011;6521;50.498;8.474;2023-08-24T15:05:45;9.45;;;3.70;;
12906;SDS011;6521;50.498;8.474;2023-08-24T15:08:16;6.47;;;3.40;;
12906;SDS011;6521;50.498;8.474;2023-08-24T15:10:50;6.90;;;3.80;;
12906;SDS011;6521;50.498;8.474;2023-08-24T15:13:20;7.97;;;3.60;;
12906;SDS011;6521;50.498;8.474;2023-08-24T15:15:52;6.75;;;3.72;;
12906;SDS011;6521;50.498;8.474;2023-08-24T15:18:24;8.05;;;3.63;;
12906;SDS011;6521;50.498;8.474;2023-08-24T15:20:56;5.32;;;4.07;;
12906;SDS011;6521;50.498;8.474;2023-08-24T15:23:29;10.75;;;3.90;;
12906;SDS011;6521;50.498;8.474;2023-08-24T15:26:00;8.70;;;4.05;;
12906;SDS011;6521;50.498;8.474;2023-08-24T15:28:35;6.75;;;4.03;;
12906;SDS011;6521;50.498;8.474;2023-08-24T15:31:07;10.38;;;4.05;;
12906;SDS011;6521;50.498;8.474;2023-08-24T15:33:37;7.57;;;4.20;;
12906;SDS011;6521;50.498;8.474;2023-08-24T15:36:07;6.90;;;3.90;;